createdAt,value
2018-04-29T00:00:36.073Z,21.37
2018-04-29T00:03:03.598Z,19.40
2018-04-29T00:05:31.028Z,19.73
2018-04-29T00:07:58.392Z,20.27
2018-04-29T00:10:26.698Z,25.10
2018-04-29T00:12:53.861Z,19.63
2018-04-29T00:15:20.869Z,26.10
2018-04-29T00:17:48.225Z,20.10
2018-04-29T00:20:15.773Z,20.33
2018-04-29T00:22:43.344Z,20.07
2018-04-29T00:25:11.332Z,18.53
2018-04-29T00:34:24.281Z,17.90
2018-04-29T00:36:51.551Z,17.63
2018-04-29T00:39:18.790Z,15.03
2018-04-29T00:41:46.834Z,17.53
2018-04-29T00:44:14.226Z,14.87
2018-04-29T00:46:41.916Z,14.43
2018-04-29T00:49:09.594Z,12.70
2018-04-29T00:51:48.570Z,13.23
2018-04-29T00:54:15.510Z,11.57
2018-04-29T00:56:42.492Z,14.47
2018-04-29T00:59:10.188Z,14.07
2018-04-29T01:01:37.135Z,9.67
2018-04-29T01:04:05.202Z,11.30
2018-04-29T01:06:32.759Z,12.83
2018-04-29T01:09:00.204Z,11.20
2018-04-29T01:11:27.017Z,14.17
2018-04-29T01:13:55.090Z,13.47
2018-04-29T01:16:22.502Z,15.47
2018-04-29T01:18:49.251Z,13.43
2018-04-29T01:21:16.870Z,12.00
2018-04-29T01:23:44.082Z,14.83
2018-04-29T01:26:11.549Z,11.60
2018-04-29T01:28:38.754Z,14.70
2018-04-29T01:31:05.660Z,12.10
2018-04-29T01:33:32.838Z,14.83
2018-04-29T01:36:00.396Z,12.30
2018-04-29T01:38:27.971Z,12.07
2018-04-29T01:40:54.979Z,11.30
2018-04-29T01:43:23.022Z,15.77
2018-04-29T01:45:51.092Z,14.50
2018-04-29T01:48:18.168Z,17.27
2018-04-29T01:50:45.683Z,16.37
2018-04-29T01:53:12.721Z,11.53
2018-04-29T01:55:39.845Z,11.50
2018-04-29T01:58:06.834Z,16.87
2018-04-29T02:00:33.869Z,15.07
2018-04-29T02:03:02.187Z,19.67
2018-04-29T02:05:29.143Z,15.63
2018-04-29T02:07:56.200Z,16.77
2018-04-29T02:10:24.834Z,16.40
2018-04-29T02:12:52.061Z,17.10
2018-04-29T02:15:18.712Z,17.13
2018-04-29T02:17:47.257Z,21.27
2018-04-29T02:20:15.437Z,17.27
2018-04-29T02:22:43.202Z,19.90
2018-04-29T02:25:10.164Z,18.07
2018-04-29T02:27:37.505Z,17.10
2018-04-29T02:30:04.799Z,15.80
2018-04-29T02:32:32.414Z,19.90
2018-04-29T02:34:59.685Z,19.50
2018-04-29T02:37:26.718Z,19.20
2018-04-29T02:39:54.243Z,18.40
2018-04-29T02:42:21.556Z,18.60
2018-04-29T02:44:49.020Z,15.87
2018-04-29T02:47:17.253Z,21.00
2018-04-29T02:49:44.820Z,15.30
2018-04-29T02:52:11.707Z,15.40
2018-04-29T02:54:38.940Z,17.07
2018-04-29T02:57:06.994Z,14.93
2018-04-29T02:59:34.322Z,15.40
2018-04-29T03:02:01.254Z,16.33
2018-04-29T03:04:29.084Z,15.73
2018-04-29T03:06:58.079Z,16.77
2018-04-29T03:09:26.407Z,17.97
2018-04-29T03:11:54.305Z,14.30
2018-04-29T03:14:21.439Z,16.90
2018-04-29T03:16:48.507Z,14.83
2018-04-29T03:19:15.359Z,21.33
2018-04-29T03:21:43.409Z,13.20
2018-04-29T03:24:11.899Z,18.30
2018-04-29T03:26:39.674Z,15.87
2018-04-29T03:29:06.451Z,16.93
2018-04-29T03:31:33.131Z,17.10
2018-04-29T03:34:00.318Z,17.83
2018-04-29T03:36:28.167Z,16.70
2018-04-29T03:38:55.037Z,17.10
2018-04-29T03:41:21.698Z,16.17
2018-04-29T03:43:49.241Z,20.03
2018-04-29T03:46:16.734Z,17.57
2018-04-29T03:48:43.393Z,16.13
2018-04-29T03:51:10.584Z,15.97
2018-04-29T03:53:37.218Z,19.00
2018-04-29T03:56:04.275Z,11.00
2018-04-29T03:58:44.160Z,11.53
2018-04-29T04:01:22.937Z,11.77
2018-04-29T04:04:02.426Z,11.33
2018-04-29T04:06:30.938Z,11.20
2018-04-29T04:08:58.655Z,12.33
2018-04-29T04:11:25.538Z,10.67
2018-04-29T04:13:53.174Z,10.40
2018-04-29T04:16:20.635Z,11.73
2018-04-29T04:18:47.971Z,11.13
2018-04-29T04:21:15.964Z,14.63
2018-04-29T04:23:43.284Z,9.10
2018-04-29T04:26:11.034Z,8.60
2018-04-29T04:28:38.671Z,10.77
2018-04-29T04:31:06.262Z,9.17
2018-04-29T04:33:33.470Z,9.40
2018-04-29T04:36:01.319Z,9.43
2018-04-29T04:38:28.439Z,8.93
2018-04-29T04:40:57.219Z,7.03
2018-04-29T04:43:25.400Z,10.60
2018-04-29T04:45:54.336Z,7.30
2018-04-29T04:48:22.856Z,12.83
2018-04-29T04:50:50.677Z,7.93
2018-04-29T04:53:19.335Z,8.77
2018-04-29T04:55:47.009Z,8.50
2018-04-29T04:58:15.783Z,13.87
2018-04-29T05:00:43.554Z,9.73
2018-04-29T05:03:12.683Z,10.20
2018-04-29T05:05:40.315Z,9.50
2018-04-29T05:08:10.811Z,11.10
2018-04-29T05:10:38.385Z,9.60
2018-04-29T05:13:07.205Z,8.90
2018-04-29T05:15:35.811Z,11.87
2018-04-29T05:18:05.485Z,11.27
2018-04-29T05:20:34.193Z,12.67
2018-04-29T05:23:03.207Z,10.13
2018-04-29T05:25:31.523Z,13.40
2018-04-29T05:27:58.892Z,12.07
2018-04-29T05:30:26.628Z,9.47
2018-04-29T05:32:54.585Z,13.63
2018-04-29T05:35:23.108Z,11.90
2018-04-29T05:37:50.113Z,12.67
2018-04-29T05:40:20.178Z,13.40
2018-04-29T05:42:48.749Z,10.63
2018-04-29T05:45:18.162Z,11.87
2018-04-29T05:47:45.569Z,10.77
2018-04-29T05:50:12.869Z,12.40
2018-04-29T05:52:40.764Z,12.23
2018-04-29T05:55:09.617Z,10.63
2018-04-29T05:57:37.722Z,11.53
2018-04-29T06:00:05.982Z,11.93
2018-04-29T06:02:34.098Z,13.97
2018-04-29T06:05:01.130Z,18.27
2018-04-29T06:07:28.635Z,10.93
2018-04-29T06:09:56.468Z,13.77
2018-04-29T06:12:23.932Z,15.57
2018-04-29T06:14:52.135Z,15.70
2018-04-29T06:17:19.920Z,11.77
2018-04-29T06:19:47.154Z,14.23
2018-04-29T06:22:15.448Z,11.80
2018-04-29T06:24:43.773Z,15.13
2018-04-29T06:27:11.344Z,11.40
2018-04-29T06:29:38.368Z,13.37
2018-04-29T06:32:06.045Z,12.77
2018-04-29T06:34:33.729Z,13.33
2018-04-29T06:37:01.492Z,14.33
2018-04-29T06:39:29.058Z,16.90
2018-04-29T06:41:57.500Z,13.10
2018-04-29T06:44:24.951Z,15.13
2018-04-29T06:46:53.133Z,12.67
2018-04-29T06:49:21.680Z,15.57
2018-04-29T06:51:49.092Z,12.60
2018-04-29T06:54:18.146Z,18.03
2018-04-29T06:56:46.289Z,13.33
2018-04-29T06:59:15.258Z,10.63
2018-04-29T07:01:43.306Z,12.20
2018-04-29T07:04:10.931Z,12.80
2018-04-29T07:06:39.623Z,14.80
2018-04-29T07:09:10.650Z,13.93
2018-04-29T07:11:39.600Z,16.03
2018-04-29T07:14:08.674Z,12.87
2018-04-29T07:16:35.675Z,13.10
2018-04-29T07:19:03.735Z,15.07
2018-04-29T07:21:31.139Z,14.83
2018-04-29T07:23:59.254Z,18.27
2018-04-29T07:26:27.561Z,13.50
2018-04-29T07:28:55.720Z,18.63
2018-04-29T07:31:23.715Z,16.53
2018-04-29T07:33:51.123Z,13.07
2018-04-29T07:36:18.788Z,16.33
2018-04-29T07:38:47.559Z,15.30
2018-04-29T07:41:15.554Z,15.40
2018-04-29T07:43:43.037Z,15.00
2018-04-29T07:46:10.471Z,18.67
2018-04-29T07:48:37.423Z,14.10
2018-04-29T07:51:05.716Z,14.67
2018-04-29T07:53:32.858Z,14.33
2018-04-29T07:55:59.937Z,14.43
2018-04-29T07:58:27.706Z,12.47
2018-04-29T08:00:54.599Z,13.03
2018-04-29T08:03:22.936Z,13.30
2018-04-29T08:05:50.672Z,11.53
2018-04-29T08:08:17.911Z,13.27
2018-04-29T08:10:46.637Z,15.10
2018-04-29T08:13:14.958Z,16.53
2018-04-29T08:15:44.296Z,18.60
2018-04-29T08:18:15.895Z,16.57
2018-04-29T08:20:43.552Z,15.57
2018-04-29T08:23:11.037Z,13.23
2018-04-29T08:25:38.101Z,13.67
2018-04-29T08:28:06.923Z,18.10
2018-04-29T08:30:34.431Z,16.50
2018-04-29T08:33:03.041Z,16.87
2018-04-29T08:35:32.533Z,15.47
2018-04-29T08:37:59.826Z,15.60
2018-04-29T08:40:26.862Z,11.93
2018-04-29T08:42:54.735Z,17.20
2018-04-29T08:45:22.486Z,14.27
2018-04-29T08:47:49.668Z,14.23
2018-04-29T08:50:18.825Z,13.27
2018-04-29T08:52:48.100Z,17.60
2018-04-29T08:55:17.165Z,13.47
2018-04-29T08:57:44.741Z,13.50
2018-04-29T09:00:11.942Z,15.40
2018-04-29T09:02:39.667Z,12.30
2018-04-29T09:05:08.476Z,11.40
2018-04-29T09:07:36.303Z,15.03
2018-04-29T09:10:03.886Z,19.40
2018-04-29T09:12:31.661Z,12.00
2018-04-29T09:14:59.368Z,13.10
2018-04-29T09:17:27.661Z,16.00
2018-04-29T09:19:57.152Z,17.97
2018-04-29T09:22:24.356Z,12.63
2018-04-29T09:24:51.679Z,17.07
2018-04-29T09:27:20.090Z,15.30
2018-04-29T09:29:49.593Z,19.97
2018-04-29T09:32:18.608Z,13.20
2018-04-29T09:34:46.052Z,11.67
2018-04-29T09:37:14.313Z,12.63
2018-04-29T09:39:42.632Z,17.93
2018-04-29T09:42:09.702Z,11.83
2018-04-29T09:44:37.485Z,16.87
2018-04-29T09:47:06.585Z,17.00
2018-04-29T09:49:34.655Z,11.37
2018-04-29T09:52:03.306Z,17.37
2018-04-29T09:54:32.177Z,18.30
2018-04-29T09:57:00.194Z,13.80
2018-04-29T09:59:27.773Z,15.53
2018-04-29T10:01:55.941Z,14.10
2018-04-29T10:04:23.049Z,13.97
2018-04-29T10:06:51.493Z,35.40
2018-04-29T10:09:19.345Z,12.70
2018-04-29T10:11:47.402Z,18.10
2018-04-29T10:14:15.133Z,16.33
2018-04-29T10:16:42.823Z,16.90
2018-04-29T10:19:12.046Z,16.80
2018-04-29T10:21:41.360Z,17.27
2018-04-29T10:24:09.203Z,9.77
2018-04-29T10:26:37.185Z,15.77
2018-04-29T10:29:05.035Z,17.10
2018-04-29T10:31:33.963Z,16.37
2018-04-29T10:34:02.082Z,11.93
2018-04-29T10:36:30.250Z,13.80
2018-04-29T10:39:00.082Z,12.83
2018-04-29T10:41:27.883Z,12.40
2018-04-29T10:43:55.369Z,7.97
2018-04-29T10:46:24.682Z,11.77
2018-04-29T10:51:39.240Z,12.40
2018-04-29T10:54:07.328Z,12.60
2018-04-29T10:56:36.707Z,11.67
2018-04-29T10:59:05.216Z,9.53
2018-04-29T11:01:33.679Z,12.33
2018-04-29T11:04:01.856Z,8.40
2018-04-29T11:06:28.840Z,10.30
2018-04-29T11:08:58.685Z,12.97
2018-04-29T11:11:26.495Z,14.83
2018-04-29T11:13:55.148Z,10.20
2018-04-29T11:16:23.691Z,15.40
2018-04-29T11:18:50.983Z,9.90
2018-04-29T11:21:20.736Z,9.47
2018-04-29T11:23:49.693Z,12.63
2018-04-29T11:26:18.172Z,15.90
2018-04-29T11:28:47.093Z,9.63
2018-04-29T11:31:14.884Z,9.10
2018-04-29T11:33:42.272Z,11.60
2018-04-29T11:36:13.082Z,10.97
2018-04-29T11:38:40.555Z,11.10
2018-04-29T11:41:09.550Z,12.33
2018-04-29T11:43:39.513Z,16.43
2018-04-29T11:46:07.115Z,11.27
2018-04-29T11:48:38.363Z,14.67
2018-04-29T11:51:06.444Z,10.43
2018-04-29T11:53:34.523Z,10.30
2018-04-29T11:56:02.044Z,12.13
2018-04-29T11:58:30.903Z,11.30
2018-04-29T12:00:59.458Z,14.33
2018-04-29T12:03:26.905Z,11.80
2018-04-29T12:05:54.511Z,11.50
2018-04-29T12:08:22.730Z,8.53
2018-04-29T12:10:51.815Z,12.53
2018-04-29T12:13:19.798Z,12.57
2018-04-29T12:15:49.718Z,10.60
2018-04-29T12:18:17.689Z,12.70
2018-04-29T12:20:45.799Z,10.03
2018-04-29T12:23:13.696Z,10.10
2018-04-29T12:25:42.701Z,10.80
2018-04-29T12:28:11.166Z,13.70
2018-04-29T12:30:39.471Z,12.77
2018-04-29T12:33:08.908Z,13.80
2018-04-29T12:35:37.479Z,12.50
2018-04-29T12:38:05.478Z,11.30
2018-04-29T12:40:32.117Z,9.90
2018-04-29T12:43:00.392Z,8.87
2018-04-29T12:45:28.692Z,11.23
2018-04-29T12:47:56.109Z,13.30
2018-04-29T12:50:23.512Z,12.97
2018-04-29T12:52:51.412Z,13.63
2018-04-29T12:55:18.323Z,10.07
2018-04-29T12:57:46.528Z,14.37
2018-04-29T13:00:15.028Z,12.23
2018-04-29T13:02:43.236Z,11.70
2018-04-29T13:05:12.088Z,12.53
2018-04-29T13:07:40.557Z,10.90
2018-04-29T13:10:08.760Z,13.07
2018-04-29T13:12:37.108Z,12.70
2018-04-29T13:15:05.928Z,10.83
2018-04-29T13:17:34.773Z,15.47
2018-04-29T13:22:38.194Z,10.60
2018-04-29T13:25:05.661Z,10.50
2018-04-29T13:27:34.779Z,10.33
2018-04-29T13:30:03.736Z,11.07
2018-04-29T13:32:32.113Z,11.60
2018-04-29T13:34:59.832Z,11.50
2018-04-29T13:37:28.238Z,11.20
2018-04-29T13:39:56.044Z,8.83
2018-04-29T13:42:23.376Z,11.10
2018-04-29T13:44:52.456Z,11.53
2018-04-29T13:47:20.661Z,12.33
2018-04-29T13:49:48.528Z,10.27
2018-04-29T13:52:17.189Z,11.00
2018-04-29T13:54:45.713Z,8.43
2018-04-29T13:57:13.166Z,12.23
2018-04-29T13:59:40.726Z,13.73
2018-04-29T14:02:08.740Z,9.17
2018-04-29T14:04:36.123Z,10.27
2018-04-29T14:08:39.719Z,11.13
2018-04-29T14:11:07.964Z,15.30
2018-04-29T14:13:36.727Z,11.43
2018-04-29T14:16:04.741Z,8.13
2018-04-29T14:21:13.928Z,12.90
2018-04-29T14:23:42.153Z,11.00
2018-04-29T14:26:10.943Z,10.67
2018-04-29T14:28:39.057Z,11.87
2018-04-29T14:31:07.460Z,10.47
2018-04-29T14:33:35.651Z,11.23
2018-04-29T14:36:05.696Z,10.67
2018-04-29T14:38:34.657Z,12.20
2018-04-29T14:41:02.379Z,10.00
2018-04-29T14:43:31.636Z,10.63
2018-04-29T14:45:59.151Z,17.57
2018-04-29T14:48:26.916Z,11.50
2018-04-29T14:50:54.944Z,12.07
2018-04-29T14:53:23.752Z,11.83
2018-04-29T14:55:50.862Z,11.40
2018-04-29T14:58:18.239Z,10.40
2018-04-29T15:00:47.050Z,11.10
2018-04-29T15:09:15.274Z,14.37
2018-04-29T15:11:43.092Z,11.80
2018-04-29T15:14:11.494Z,22.87
2018-04-29T15:16:38.758Z,11.63
2018-04-29T15:19:06.545Z,11.40
2018-04-29T15:21:34.285Z,13.50
2018-04-29T15:24:02.245Z,12.77
2018-04-29T15:26:30.701Z,18.37
2018-04-29T15:28:57.944Z,12.33
2018-04-29T15:31:26.209Z,9.37
2018-04-29T15:33:53.876Z,10.23
2018-04-29T15:36:21.836Z,10.40
2018-04-29T15:38:49.073Z,11.63
2018-04-29T15:41:19.236Z,10.27
2018-04-29T15:43:48.417Z,13.13
2018-04-29T15:46:17.602Z,10.23
2018-04-29T15:48:47.303Z,7.97
2018-04-29T15:51:15.665Z,12.63
2018-04-29T15:53:43.467Z,10.00
2018-04-29T15:56:10.372Z,14.33
2018-04-29T15:58:38.213Z,9.37
2018-04-29T16:01:06.040Z,10.23
2018-04-29T16:03:34.855Z,11.53
2018-04-29T16:06:01.708Z,8.37
2018-04-29T16:08:30.280Z,9.67
2018-04-29T16:10:57.115Z,8.73
2018-04-29T16:13:24.933Z,8.23
2018-04-29T16:15:52.425Z,11.13
2018-04-29T16:18:19.368Z,7.13
2018-04-29T16:20:46.535Z,10.50
2018-04-29T16:23:13.395Z,10.57
2018-04-29T16:25:43.952Z,9.53
2018-04-29T16:28:11.889Z,10.00
2018-04-29T16:30:40.723Z,11.87
2018-04-29T16:33:08.222Z,9.70
2018-04-29T16:35:37.070Z,9.37
2018-04-29T16:38:05.768Z,8.53
2018-04-29T16:40:32.859Z,7.00
2018-04-29T16:43:01.409Z,9.00
2018-04-29T16:45:29.892Z,9.17
2018-04-29T16:47:58.214Z,13.73
2018-04-29T16:50:25.358Z,12.50
2018-04-29T16:52:53.563Z,10.80
2018-04-29T16:55:22.220Z,8.60
2018-04-29T16:57:50.452Z,8.60
2018-04-29T17:00:17.924Z,8.70
2018-04-29T17:02:45.551Z,14.00
2018-04-29T17:05:13.661Z,7.17
2018-04-29T17:07:41.046Z,11.00
2018-04-29T17:10:09.472Z,9.73
2018-04-29T17:12:39.129Z,10.70
2018-04-29T17:15:07.331Z,8.27
2018-04-29T17:17:35.781Z,13.73
2018-04-29T17:20:03.285Z,9.53
2018-04-29T17:22:31.649Z,8.43
2018-04-29T17:24:59.845Z,7.60
2018-04-29T17:27:27.169Z,12.23
2018-04-29T17:29:54.411Z,8.03
2018-04-29T17:32:24.569Z,10.27
2018-04-29T17:34:53.436Z,6.10
2018-04-29T17:37:20.724Z,8.07
2018-04-29T17:39:49.275Z,8.73
2018-04-29T17:42:16.774Z,7.83
2018-04-29T17:44:48.341Z,10.03
2018-04-29T17:47:16.148Z,11.77
2018-04-29T17:49:44.681Z,5.23
2018-04-29T17:52:16.573Z,7.33
2018-04-29T17:54:44.603Z,4.20
2018-04-29T17:57:11.869Z,4.63
2018-04-29T17:59:39.524Z,4.67
2018-04-29T18:02:07.699Z,7.10
2018-04-29T18:04:35.471Z,6.00
2018-04-29T18:07:03.603Z,6.63
2018-04-29T18:09:33.050Z,5.73
2018-04-29T18:12:00.642Z,8.73
2018-04-29T18:14:29.172Z,7.33
2018-04-29T18:16:58.690Z,6.30
2018-04-29T18:19:27.436Z,6.77
2018-04-29T18:21:54.213Z,6.60
2018-04-29T18:24:24.655Z,6.23
2018-04-29T18:26:52.194Z,9.43
2018-04-29T18:29:19.878Z,8.97
2018-04-29T18:31:48.172Z,6.63
2018-04-29T18:34:18.126Z,7.80
2018-04-29T18:36:47.419Z,5.17
2018-04-29T18:39:16.090Z,6.97
2018-04-29T18:41:43.785Z,7.77
2018-04-29T18:44:10.607Z,7.37
2018-04-29T18:46:38.937Z,7.83
2018-04-29T18:49:05.882Z,5.13
2018-04-29T18:51:34.332Z,8.30
2018-04-29T18:54:02.001Z,6.57
2018-04-29T18:56:30.139Z,7.17
2018-04-29T18:58:57.816Z,6.17
2018-04-29T19:01:25.531Z,6.33
2018-04-29T19:03:53.229Z,9.70
2018-04-29T19:06:22.014Z,6.07
2018-04-29T19:08:50.301Z,6.20
2018-04-29T19:11:17.637Z,6.40
2018-04-29T19:13:45.987Z,12.43
2018-04-29T19:16:14.431Z,9.57
2018-04-29T19:18:42.698Z,9.33
2018-04-29T19:21:09.421Z,7.40
2018-04-29T19:23:41.248Z,8.33
2018-04-29T19:26:12.592Z,6.87
2018-04-29T19:28:44.156Z,6.93
2018-04-29T19:31:16.969Z,7.33
2018-04-29T19:33:51.040Z,5.93
2018-04-29T19:36:19.363Z,4.80
2018-04-29T19:38:48.502Z,5.73
2018-04-29T19:41:18.290Z,6.53
2018-04-29T19:43:49.997Z,5.00
2018-04-29T19:46:19.152Z,7.50
2018-04-29T19:48:47.682Z,5.53
2018-04-29T19:51:19.624Z,6.20
2018-04-29T19:53:47.498Z,9.17
2018-04-29T19:56:24.059Z,8.03
2018-04-29T19:58:55.113Z,4.97
2018-04-29T20:01:25.143Z,7.53
2018-04-29T20:03:55.252Z,7.87
2018-04-29T20:09:04.138Z,7.40
2018-04-29T20:14:27.085Z,4.77
2018-04-29T20:16:56.363Z,6.30
2018-04-29T20:19:29.554Z,6.73
2018-04-29T20:21:59.261Z,7.50
2018-04-29T20:24:28.713Z,8.20
2018-04-29T20:26:56.073Z,7.87
2018-04-29T20:29:24.319Z,5.30
2018-04-29T20:31:53.179Z,6.50
2018-04-29T20:34:28.321Z,8.13
2018-04-29T20:36:59.774Z,5.07
2018-04-29T20:39:33.295Z,7.70
2018-04-29T20:42:12.843Z,5.80
2018-04-29T20:44:42.954Z,6.20
2018-04-29T20:47:15.583Z,7.53
2018-04-29T20:49:44.413Z,7.47
2018-04-29T20:52:18.958Z,7.20
2018-04-29T20:54:47.177Z,6.50
2018-04-29T20:57:15.873Z,6.40
2018-04-29T20:59:46.087Z,5.77
2018-04-29T21:02:14.269Z,4.07
2018-04-29T21:04:43.361Z,4.13
2018-04-29T21:07:10.861Z,4.80
2018-04-29T21:09:39.019Z,5.30
2018-04-29T21:12:09.004Z,5.27
2018-04-29T21:14:38.513Z,5.97
2018-04-29T21:17:12.587Z,8.20
2018-04-29T21:19:43.231Z,3.27
2018-04-29T21:22:23.719Z,5.40
2018-04-29T21:24:56.335Z,4.43
2018-04-29T21:27:25.663Z,6.07
2018-04-29T21:30:04.123Z,3.80
2018-04-29T21:32:32.294Z,5.47
2018-04-29T21:35:09.795Z,5.13
2018-04-29T21:37:43.923Z,3.80
2018-04-29T21:40:12.625Z,5.37
2018-04-29T21:42:44.704Z,5.43
2018-04-29T21:45:16.955Z,5.13
2018-04-29T21:47:52.368Z,6.27
2018-04-29T21:50:22.788Z,4.17
2018-04-29T21:52:58.864Z,3.80
2018-04-29T21:55:34.327Z,6.37
2018-04-29T21:58:12.184Z,4.87
2018-04-29T22:00:47.976Z,4.43
2018-04-29T22:03:18.558Z,6.87
2018-04-29T22:05:56.483Z,6.03
2018-04-29T22:08:44.290Z,5.27
2018-04-29T22:11:20.463Z,3.43
2018-04-29T22:13:52.725Z,5.30
2018-04-29T22:16:21.841Z,8.50
2018-04-29T22:19:01.387Z,4.10
2018-04-29T22:21:29.154Z,4.53
2018-04-29T22:23:57.993Z,4.83
2018-04-29T22:26:30.986Z,4.43
2018-04-29T22:29:01.827Z,3.97
2018-04-29T22:31:36.810Z,5.23
2018-04-29T22:34:09.569Z,7.53
2018-04-29T22:36:38.340Z,4.17
2018-04-29T22:39:19.892Z,4.73
2018-04-29T22:41:50.001Z,7.37
2018-04-29T22:44:45.969Z,4.37
2018-04-29T22:47:17.774Z,9.23
2018-04-29T22:49:48.494Z,5.80
2018-04-29T22:52:16.173Z,7.37
2018-04-29T22:54:51.452Z,6.80
2018-04-29T22:57:28.240Z,3.87
2018-04-29T22:59:56.080Z,3.63
2018-04-29T23:02:26.042Z,4.03
2018-04-29T23:04:54.342Z,5.13
2018-04-29T23:07:24.905Z,4.57
2018-04-29T23:09:54.999Z,4.20
2018-04-29T23:12:30.223Z,5.67
2018-04-29T23:14:57.898Z,7.27
2018-04-29T23:17:33.797Z,5.33
2018-04-29T23:20:08.029Z,5.70
2018-04-29T23:22:36.776Z,5.10
2018-04-29T23:25:05.273Z,6.70
2018-04-29T23:27:36.751Z,6.10
2018-04-29T23:30:05.806Z,8.20
2018-04-29T23:32:36.635Z,6.80
2018-04-29T23:35:06.011Z,4.53
2018-04-29T23:37:37.228Z,4.23
2018-04-29T23:40:05.585Z,4.23
2018-04-29T23:42:34.461Z,4.30
2018-04-29T23:45:02.663Z,3.53
2018-04-29T23:47:34.509Z,3.97
2018-04-29T23:50:04.895Z,3.93
2018-04-29T23:52:35.481Z,4.43
2018-04-29T23:55:03.878Z,4.60
2018-04-29T23:57:33.579Z,5.73
